Estación Meteorológica Peña el Pijo (Robertgarden) [ 12/10/18 12:01:33 CET ]

Fecha Hora Presion(HPa) Temp (°C) Humedad % Rocio (°C) Viento ( m/s) Direccion Lluvia 1Hora(mm) Lluvia 24H(mm) LLuvia Total(mm)
2018-Oct-31 01:01:43 992.500 3.6 85 1.3     1.03 2.59 93.75
2018-Oct-31 02:01:44 992.800 3.6 85 1.3     0.51 3.10 94.27
2018-Oct-31 03:01:39 992.000 3.6 86 1.5       3.10 94.27
2018-Oct-31 04:03:30 992.100 3.2 86 1.1       3.10 94.27
2018-Oct-31 05:07:05 992.300 2.6 86 0.5       3.10 94.27
2018-Oct-31 06:01:50 992.900 2.5 87 0.5       3.10 94.27
2018-Oct-31 07:01:46 993.000 2.9 86 0.8     0.51 3.62 94.79
2018-Oct-31 08:01:43 993.300 3.3 85 1.0       3.62 94.79
2018-Oct-31 09:02:04 993.900 3.9 84 1.4       3.62 94.79
2018-Oct-31 10:01:43 993.900 5.1 80 1.9 2.3 WNW   3.62 94.79
2018-Oct-31 11:01:46 994.100 8.6 68 3.0 1.4 N   3.62 94.79
2018-Oct-31 12:02:03 994.600 9.5 62 2.6 1.1 WNW   3.62 94.79
2018-Oct-31 13:01:46 994.600 10.2 60 2.8       3.62 94.79
2018-Oct-31 14:01:39 994.800 10.5 57 2.3 2.4 NNE   3.62 94.79
2018-Oct-31 15:02:06 994.500 9.4 59 1.8       3.62 94.79
2018-Oct-31 16:01:43 995.600 9.4 58 1.5 1.4 NNW   3.62 94.79
2018-Oct-31 17:01:45 995.900 7.2 68 1.7       3.62 94.79
2018-Oct-31 18:01:58 996.100 6.1 69 0.9 1.8 N   3.62 94.79
2018-Oct-31 19:01:39 996.000 4.4 72 -0.2       3.62 94.79
2018-Oct-31 20:01:36 996.100 2.6 76 -1.2       3.62 94.79
2018-Oct-31 21:01:34 997.000 2.4 79 -0.9       3.62 94.79
2018-Oct-31 22:01:47 997.400 1.8 81 -1.1       3.62 94.79
2018-Oct-31 23:01:41 997.900 2.1 83 -0.5       2.07 94.79

Temperatura Máxima:10°    Temperatura Mínima:
Presión Máxima:997.900 Hpa    Presión Mínima:992.000 Hpa


Volver